createdAt,value
2019-05-10T00:00:18.607Z,99.90
2019-05-10T00:03:06.263Z,99.80
2019-05-10T00:05:53.584Z,99.90
2019-05-10T00:08:41.271Z,99.90
2019-05-10T00:11:33.002Z,99.90
2019-05-10T00:14:25.236Z,99.90
2019-05-10T00:16:58.077Z,99.90
2019-05-10T00:19:27.668Z,99.90
2019-05-10T00:21:57.315Z,99.90
2019-05-10T00:24:26.915Z,99.90
2019-05-10T00:26:57.580Z,99.90
2019-05-10T00:29:27.231Z,99.90
2019-05-10T00:31:56.805Z,99.50
2019-05-10T00:34:26.377Z,99.80
2019-05-10T00:36:55.979Z,99.90
2019-05-10T00:39:26.619Z,99.70
2019-05-10T00:41:56.191Z,99.60
2019-05-10T00:44:26.791Z,99.80
2019-05-10T00:46:56.341Z,99.90
2019-05-10T00:49:25.924Z,99.90
2019-05-10T00:51:55.529Z,99.90
2019-05-10T00:54:25.129Z,99.90
2019-05-10T00:56:54.780Z,99.90
2019-05-10T00:59:24.409Z,99.90
2019-05-10T01:01:54.045Z,99.90
2019-05-10T01:04:24.662Z,99.90
2019-05-10T01:06:56.317Z,99.90
2019-05-10T01:09:26.582Z,99.90
2019-05-10T01:11:56.213Z,99.90
2019-05-10T01:14:25.797Z,99.90
2019-05-10T01:16:55.422Z,99.90
2019-05-10T01:19:25.070Z,99.90
2019-05-10T01:21:54.668Z,99.90
2019-05-10T01:24:24.207Z,99.90
2019-05-10T01:26:53.756Z,99.90
2019-05-10T01:29:23.368Z,99.90
2019-05-10T01:31:52.938Z,99.90
2019-05-10T01:34:22.477Z,99.90
2019-05-10T01:36:52.032Z,99.90
2019-05-10T01:39:21.591Z,99.90
2019-05-10T01:41:51.139Z,99.90
2019-05-10T01:44:20.702Z,99.90
2019-05-10T01:46:50.234Z,99.90
2019-05-10T01:49:19.780Z,99.90
2019-05-10T01:51:49.350Z,99.90
2019-05-10T01:54:18.888Z,99.90
2019-05-10T01:56:48.455Z,99.90
2019-05-10T01:59:18.160Z,99.90
2019-05-10T02:01:47.765Z,99.90
2019-05-10T02:04:18.018Z,99.90
2019-05-10T02:06:47.956Z,99.90
2019-05-10T02:09:17.649Z,99.90
2019-05-10T02:11:47.225Z,99.90
2019-05-10T02:14:16.825Z,99.90
2019-05-10T02:16:46.583Z,99.90
2019-05-10T02:19:16.305Z,99.90
2019-05-10T02:21:46.192Z,99.90
2019-05-10T02:24:16.213Z,99.90
2019-05-10T02:26:46.173Z,99.90
2019-05-10T02:29:17.467Z,99.90
2019-05-10T02:31:56.305Z,99.90
2019-05-10T02:34:27.915Z,99.90
2019-05-10T02:36:57.788Z,99.90
2019-05-10T02:39:27.684Z,99.90
2019-05-10T02:41:57.704Z,99.90
2019-05-10T02:44:27.489Z,99.90
2019-05-10T02:46:57.195Z,99.90
2019-05-10T02:49:26.864Z,99.90
2019-05-10T02:51:56.584Z,99.90
2019-05-10T02:54:26.428Z,99.90
2019-05-10T02:56:56.288Z,99.90
2019-05-10T02:59:27.183Z,99.90
2019-05-10T03:01:58.207Z,99.90
2019-05-10T03:04:37.465Z,99.90
2019-05-10T03:07:08.302Z,99.90
2019-05-10T03:09:39.061Z,99.90
2019-05-10T03:12:40.015Z,99.90
2019-05-10T03:15:11.567Z,99.90
2019-05-10T03:17:41.626Z,99.90
2019-05-10T03:20:12.430Z,99.90
2019-05-10T03:22:43.622Z,99.90
2019-05-10T03:25:15.079Z,99.90
2019-05-10T03:27:45.005Z,99.90
2019-05-10T03:30:15.033Z,99.90
2019-05-10T03:32:44.687Z,99.90
2019-05-10T03:35:14.464Z,99.90
2019-05-10T03:37:44.499Z,99.90
2019-05-10T03:40:14.354Z,99.90
2019-05-10T03:42:44.049Z,99.90
2019-05-10T03:45:13.996Z,99.90
2019-05-10T03:47:43.686Z,99.90
2019-05-10T03:50:13.587Z,99.90
2019-05-10T03:52:43.621Z,99.90
2019-05-10T03:55:13.511Z,99.90
2019-05-10T03:57:43.253Z,99.90
2019-05-10T04:00:14.029Z,99.90
2019-05-10T04:02:43.787Z,99.90
2019-05-10T04:05:14.094Z,99.90
2019-05-10T04:07:43.996Z,99.90
2019-05-10T04:10:14.001Z,99.90
2019-05-10T04:12:43.660Z,99.90
2019-05-10T04:15:13.456Z,99.90
2019-05-10T04:17:43.224Z,99.90
2019-05-10T04:20:13.003Z,99.90
2019-05-10T04:22:42.750Z,99.90
2019-05-10T04:25:12.678Z,99.90
2019-05-10T04:27:42.422Z,99.90
2019-05-10T04:30:12.825Z,99.90
2019-05-10T04:32:42.457Z,99.90
2019-05-10T04:35:12.206Z,99.90
2019-05-10T04:37:42.772Z,99.90
2019-05-10T04:40:12.585Z,99.90
2019-05-10T04:42:42.386Z,99.90
2019-05-10T04:45:12.477Z,99.90
2019-05-10T04:47:42.450Z,99.90
2019-05-10T04:50:12.487Z,99.90
2019-05-10T04:52:42.121Z,99.90
2019-05-10T04:55:11.966Z,99.90
2019-05-10T04:57:50.667Z,99.90
2019-05-10T05:00:13.070Z,99.90
2019-05-10T05:02:47.668Z,99.90
2019-05-10T05:05:17.540Z,99.90
2019-05-10T05:07:47.296Z,99.90
2019-05-10T05:10:17.199Z,99.90
2019-05-10T05:12:47.029Z,99.90
2019-05-10T05:15:16.953Z,99.90
2019-05-10T05:17:46.507Z,99.90
2019-05-10T05:20:16.050Z,99.90
2019-05-10T05:22:45.576Z,99.90
2019-05-10T05:25:15.156Z,99.90
2019-05-10T05:27:44.718Z,99.90
2019-05-10T05:30:16.275Z,99.90
2019-05-10T05:32:45.906Z,99.90
2019-05-10T05:35:15.676Z,99.90
2019-05-10T05:37:45.223Z,99.90
2019-05-10T05:40:15.100Z,99.90
2019-05-10T05:42:44.681Z,99.90
2019-05-10T05:45:14.452Z,99.90
2019-05-10T05:47:44.872Z,99.90
2019-05-10T05:50:14.750Z,99.90
2019-05-10T05:52:44.424Z,99.90
2019-05-10T05:55:14.145Z,99.90
2019-05-10T05:57:43.716Z,99.90
2019-05-10T06:00:13.453Z,99.90
2019-05-10T06:02:44.851Z,99.90
2019-05-10T06:05:32.206Z,99.90
2019-05-10T06:07:46.644Z,99.90
2019-05-10T06:10:17.838Z,99.90
2019-05-10T06:12:50.306Z,99.90
2019-05-10T06:15:23.209Z,99.90
2019-05-10T06:17:56.793Z,99.90
2019-05-10T06:20:21.626Z,99.90
2019-05-10T06:23:05.620Z,99.90
2019-05-10T06:25:38.094Z,99.90
2019-05-10T06:27:53.797Z,99.90
2019-05-10T06:30:23.640Z,99.90
2019-05-10T06:32:59.893Z,99.90
2019-05-10T06:35:24.596Z,99.90
2019-05-10T06:37:54.240Z,99.80
2019-05-10T06:40:33.218Z,99.90
2019-05-10T06:42:55.050Z,99.80
2019-05-10T06:45:24.688Z,99.50
2019-05-10T06:47:54.275Z,99.40
2019-05-10T06:50:29.814Z,99.90
2019-05-10T06:53:00.638Z,98.90
2019-05-10T06:55:26.493Z,99.90
2019-05-10T06:58:00.555Z,99.00
2019-05-10T07:00:27.406Z,98.80
2019-05-10T07:02:56.984Z,98.90
2019-05-10T07:05:26.600Z,99.20
2019-05-10T07:08:00.609Z,98.40
2019-05-10T07:10:27.449Z,98.80
2019-05-10T07:13:03.417Z,98.50
2019-05-10T07:15:28.734Z,98.10
2019-05-10T07:17:58.329Z,98.20
2019-05-10T07:20:29.489Z,97.50
2019-05-10T07:23:00.027Z,97.40
2019-05-10T07:25:30.570Z,97.40
2019-05-10T07:28:00.204Z,96.40
2019-05-10T07:30:33.067Z,97.30
2019-05-10T07:33:02.807Z,97.20
2019-05-10T07:35:36.688Z,96.90
2019-05-10T07:38:04.690Z,97.00
2019-05-10T07:40:34.449Z,97.10
2019-05-10T07:43:04.231Z,96.50
2019-05-10T07:45:33.881Z,97.40
2019-05-10T07:48:08.129Z,96.60
2019-05-10T07:50:34.841Z,96.70
2019-05-10T07:53:04.402Z,96.90
2019-05-10T07:55:34.045Z,96.30
2019-05-10T07:58:05.127Z,96.30
2019-05-10T08:00:37.905Z,96.30
2019-05-10T08:03:15.244Z,95.90
2019-05-10T08:05:39.114Z,95.60
2019-05-10T08:08:10.179Z,95.90
2019-05-10T08:10:39.744Z,94.70
2019-05-10T08:13:09.331Z,95.10
2019-05-10T08:15:38.873Z,94.60
2019-05-10T08:18:09.859Z,95.40
2019-05-10T08:20:49.617Z,95.00
2019-05-10T08:23:12.879Z,94.90
2019-05-10T08:25:46.756Z,95.00
2019-05-10T08:28:13.470Z,95.20
2019-05-10T08:30:51.768Z,95.60
2019-05-10T08:33:16.911Z,95.60
2019-05-10T08:35:46.839Z,95.70
2019-05-10T08:38:17.757Z,95.70
2019-05-10T08:40:47.339Z,96.40
2019-05-10T08:43:17.201Z,96.60
2019-05-10T08:45:49.746Z,96.10
2019-05-10T08:48:19.040Z,97.00
2019-05-10T08:50:55.907Z,96.40
2019-05-10T08:53:19.952Z,97.10
2019-05-10T08:55:49.546Z,97.50
2019-05-10T08:58:21.639Z,96.30
2019-05-10T09:01:04.739Z,96.30
2019-05-10T09:03:22.747Z,94.70
2019-05-10T09:05:52.679Z,94.60
2019-05-10T09:08:27.241Z,95.50
2019-05-10T09:10:53.578Z,94.90
2019-05-10T09:13:23.152Z,94.20
2019-05-10T09:15:56.766Z,94.30
2019-05-10T09:18:24.078Z,94.30
2019-05-10T09:20:54.238Z,93.80
2019-05-10T09:23:24.970Z,94.60
2019-05-10T09:25:54.622Z,94.40
2019-05-10T09:28:24.281Z,95.00
2019-05-10T09:31:00.486Z,93.90
2019-05-10T09:33:25.245Z,93.10
2019-05-10T09:35:55.194Z,93.10
2019-05-10T09:38:28.606Z,92.40
2019-05-10T09:40:56.506Z,93.80
2019-05-10T09:43:26.317Z,94.00
2019-05-10T09:45:55.867Z,92.80
2019-05-10T09:48:25.464Z,91.60
2019-05-10T09:50:56.331Z,92.20
2019-05-10T09:53:29.487Z,92.10
2019-05-10T09:56:02.581Z,90.90
2019-05-10T09:58:28.986Z,91.80
2019-05-10T10:01:13.846Z,90.60
2019-05-10T10:03:30.314Z,91.30
2019-05-10T10:06:07.396Z,91.50
2019-05-10T10:08:32.307Z,91.30
2019-05-10T10:11:11.521Z,92.00
2019-05-10T10:13:40.038Z,91.50
2019-05-10T10:16:12.633Z,90.60
2019-05-10T10:18:37.213Z,90.40
2019-05-10T10:21:07.118Z,90.90
2019-05-10T10:23:37.786Z,90.90
2019-05-10T10:26:07.648Z,90.40
2019-05-10T10:28:39.599Z,91.90
2019-05-10T10:31:08.715Z,92.70
2019-05-10T10:33:38.316Z,94.10
2019-05-10T10:36:10.642Z,94.90
2019-05-10T10:38:45.351Z,95.50
2019-05-10T10:41:10.699Z,96.20
2019-05-10T10:43:40.352Z,95.50
2019-05-10T10:46:12.520Z,95.50
2019-05-10T10:48:43.520Z,94.80
2019-05-10T10:51:13.693Z,95.30
2019-05-10T10:53:43.417Z,95.00
2019-05-10T10:56:13.087Z,94.70
2019-05-10T10:58:42.661Z,94.60
2019-05-10T11:01:21.582Z,94.90
2019-05-10T11:03:43.718Z,94.50
2019-05-10T11:06:15.310Z,94.00
2019-05-10T11:08:44.723Z,94.70
2019-05-10T11:11:14.390Z,93.50
2019-05-10T11:13:45.885Z,93.40
2019-05-10T11:16:15.906Z,91.80
2019-05-10T11:21:23.283Z,92.20
2019-05-10T11:23:52.525Z,91.30
2019-05-10T11:26:26.930Z,91.50
2019-05-10T11:28:53.507Z,92.00
2019-05-10T11:31:23.073Z,91.60
2019-05-10T11:33:58.229Z,90.80
2019-05-10T11:36:23.909Z,90.40
2019-05-10T11:38:58.572Z,90.30
2019-05-10T11:41:24.946Z,91.20
2019-05-10T11:43:57.806Z,90.60
2019-05-10T11:46:28.067Z,89.80
2019-05-10T11:48:57.581Z,90.20
2019-05-10T11:51:27.264Z,88.50
2019-05-10T11:53:59.643Z,87.00
2019-05-10T11:56:28.260Z,86.30
2019-05-10T11:58:57.972Z,85.00
2019-05-10T12:01:27.544Z,85.50
2019-05-10T12:03:57.139Z,85.50
2019-05-10T12:06:26.837Z,86.00
2019-05-10T12:09:00.994Z,86.80
2019-05-10T12:11:33.553Z,85.20
2019-05-10T12:14:02.118Z,83.40
2019-05-10T12:16:33.455Z,84.50
2019-05-10T12:19:10.570Z,84.40
2019-05-10T12:21:33.419Z,86.70
2019-05-10T12:24:26.238Z,87.60
2019-05-10T12:29:12.440Z,78.50
2019-05-10T12:31:37.887Z,76.70
2019-05-10T12:34:12.787Z,76.40
2019-05-10T12:36:38.902Z,72.50
2019-05-10T12:39:08.538Z,72.10
2019-05-10T12:41:39.777Z,75.50
2019-05-10T12:44:11.194Z,72.80
2019-05-10T12:46:42.193Z,75.70
2019-05-10T12:49:12.155Z,76.90
2019-05-10T12:51:43.241Z,78.70
2019-05-10T12:54:13.079Z,78.90
2019-05-10T12:56:45.935Z,79.00
2019-05-10T12:59:13.972Z,81.10
2019-05-10T13:01:43.545Z,82.40
2019-05-10T13:04:14.854Z,83.90
2019-05-10T13:06:44.516Z,87.40
2019-05-10T13:09:14.152Z,88.10
2019-05-10T13:11:43.763Z,88.60
2019-05-10T13:14:13.432Z,87.50
2019-05-10T13:16:43.015Z,88.60
2019-05-10T13:19:14.160Z,85.40
2019-05-10T13:21:43.885Z,86.20
2019-05-10T13:24:13.546Z,85.60
2019-05-10T13:26:43.067Z,86.00
2019-05-10T13:29:12.711Z,84.00
2019-05-10T13:31:44.437Z,83.30
2019-05-10T13:34:14.147Z,82.50
2019-05-10T13:36:44.682Z,82.80
2019-05-10T13:39:19.246Z,83.10
2019-05-10T13:41:45.614Z,82.60
2019-05-10T13:44:15.259Z,85.30
2019-05-10T13:46:44.860Z,83.90
2019-05-10T13:49:14.437Z,83.90
2019-05-10T13:51:44.011Z,84.40
2019-05-10T13:54:13.539Z,86.60
2019-05-10T13:56:45.317Z,87.10
2019-05-10T13:59:17.665Z,87.00
2019-05-10T14:01:49.822Z,85.90
2019-05-10T14:04:18.137Z,87.30
2019-05-10T14:06:47.735Z,87.70
2019-05-10T14:09:20.775Z,87.20
2019-05-10T14:11:48.555Z,87.50
2019-05-10T14:14:20.599Z,87.40
2019-05-10T14:16:49.491Z,86.60
2019-05-10T14:19:22.914Z,87.20
2019-05-10T14:21:50.280Z,87.60
2019-05-10T14:24:21.680Z,87.20
2019-05-10T14:26:56.381Z,86.60
2019-05-10T14:29:33.217Z,86.10
2019-05-10T14:31:54.764Z,84.50
2019-05-10T14:34:24.384Z,83.80
2019-05-10T14:36:53.933Z,81.80
2019-05-10T14:39:23.520Z,78.50
2019-05-10T14:41:53.055Z,77.10
2019-05-10T14:44:22.651Z,72.10
2019-05-10T14:46:52.297Z,72.70
2019-05-10T14:49:22.067Z,73.90
2019-05-10T14:51:58.975Z,75.20
2019-05-10T14:54:22.872Z,74.60
2019-05-10T14:56:54.038Z,75.30
2019-05-10T14:59:23.884Z,76.80
2019-05-10T15:01:53.700Z,80.00
2019-05-10T15:04:43.886Z,80.40
2019-05-10T15:06:54.500Z,81.20
2019-05-10T15:09:24.355Z,82.50
2019-05-10T15:11:53.937Z,80.90
2019-05-10T15:14:23.735Z,83.00
2019-05-10T15:16:53.271Z,81.40
2019-05-10T15:19:26.462Z,80.90
2019-05-10T15:21:54.134Z,81.40
2019-05-10T15:24:23.697Z,80.70
2019-05-10T15:26:53.264Z,84.60
2019-05-10T15:29:24.825Z,88.10
2019-05-10T15:31:54.104Z,88.30
2019-05-10T15:34:23.676Z,85.70
2019-05-10T15:36:53.236Z,86.40
2019-05-10T15:39:28.230Z,83.70
2019-05-10T15:41:59.136Z,82.60
2019-05-10T15:44:31.588Z,80.10
2019-05-10T15:46:58.365Z,81.70
2019-05-10T15:49:27.941Z,82.70
2019-05-10T15:52:16.302Z,81.70
2019-05-10T15:54:28.883Z,82.30
2019-05-10T15:56:58.502Z,84.20
2019-05-10T15:59:28.051Z,84.20
2019-05-10T16:01:57.693Z,86.20
2019-05-10T16:04:27.271Z,86.60
2019-05-10T16:06:56.816Z,87.20
2019-05-10T16:09:26.481Z,88.30
2019-05-10T16:12:01.667Z,86.20
2019-05-10T16:14:27.376Z,82.30
2019-05-10T16:16:56.991Z,82.10
2019-05-10T16:19:26.646Z,81.40
2019-05-10T16:21:58.167Z,79.50
2019-05-10T16:24:28.106Z,78.60
2019-05-10T16:27:00.087Z,80.50
2019-05-10T16:29:33.668Z,83.20
2019-05-10T16:32:00.315Z,83.10
2019-05-10T16:34:32.236Z,83.20
2019-05-10T16:37:01.111Z,85.20
2019-05-10T16:39:30.690Z,84.90
2019-05-10T16:42:00.296Z,85.50
2019-05-10T16:44:30.005Z,86.00
2019-05-10T16:46:59.601Z,84.50
2019-05-10T16:49:29.143Z,84.70
2019-05-10T16:51:58.720Z,83.40
2019-05-10T16:54:28.285Z,84.90
2019-05-10T16:56:59.873Z,83.20
2019-05-10T16:59:29.682Z,85.80
2019-05-10T17:02:04.610Z,84.90
2019-05-10T17:04:37.327Z,86.00
2019-05-10T17:07:03.214Z,83.40
2019-05-10T17:09:32.763Z,82.80
2019-05-10T17:12:02.329Z,83.20
2019-05-10T17:14:31.941Z,84.20
2019-05-10T17:17:01.493Z,85.00
2019-05-10T17:19:34.306Z,84.80
2019-05-10T17:22:02.467Z,85.80
2019-05-10T17:24:32.135Z,86.60
2019-05-10T17:27:01.777Z,86.90
2019-05-10T17:29:33.288Z,88.20
2019-05-10T17:32:02.552Z,88.10
2019-05-10T17:34:32.202Z,87.70
2019-05-10T17:37:01.892Z,88.70
2019-05-10T17:39:32.431Z,89.10
2019-05-10T17:42:04.664Z,89.00
2019-05-10T17:44:34.192Z,89.60
2019-05-10T17:47:03.819Z,90.10
2019-05-10T17:49:33.387Z,90.20
2019-05-10T17:52:03.053Z,90.10
2019-05-10T17:54:33.864Z,90.30
2019-05-10T17:57:03.954Z,90.60
2019-05-10T17:59:33.544Z,90.80
2019-05-10T18:02:03.201Z,90.50
2019-05-10T18:04:32.737Z,90.30
2019-05-10T18:07:02.323Z,90.80
2019-05-10T18:09:31.906Z,90.50
2019-05-10T18:12:01.534Z,91.10
2019-05-10T18:14:31.081Z,91.20
2019-05-10T18:17:00.780Z,91.40
2019-05-10T18:19:30.576Z,91.50
2019-05-10T18:22:02.734Z,91.90
2019-05-10T18:24:36.238Z,92.10
2019-05-10T18:27:02.889Z,92.00
2019-05-10T18:29:32.564Z,92.20
2019-05-10T18:32:02.245Z,92.40
2019-05-10T18:34:33.222Z,92.70
2019-05-10T18:37:03.109Z,92.80
2019-05-10T18:39:32.697Z,92.80
2019-05-10T18:42:02.314Z,93.10
2019-05-10T18:44:32.010Z,93.20
2019-05-10T18:47:01.595Z,93.20
2019-05-10T18:49:31.254Z,93.20
2019-05-10T18:52:04.408Z,93.40
2019-05-10T18:54:32.246Z,93.90
2019-05-10T18:57:04.624Z,94.00
2019-05-10T18:59:33.169Z,94.10
2019-05-10T19:02:02.740Z,94.20
2019-05-10T19:04:32.388Z,94.60
2019-05-10T19:07:09.722Z,94.70
2019-05-10T19:09:33.225Z,95.10
2019-05-10T19:12:03.209Z,95.10
2019-05-10T19:14:32.844Z,95.30
2019-05-10T19:17:03.776Z,95.20
2019-05-10T19:19:41.971Z,95.10
2019-05-10T19:22:12.870Z,95.20
2019-05-10T19:24:42.522Z,95.60
2019-05-10T19:27:12.170Z,95.50
2019-05-10T19:29:45.627Z,95.20
2019-05-10T19:32:18.084Z,95.60
2019-05-10T19:34:48.314Z,95.90
2019-05-10T19:37:28.417Z,96.00
2019-05-10T19:39:47.407Z,96.10
2019-05-10T19:42:17.053Z,96.10
2019-05-10T19:44:46.732Z,96.30
2019-05-10T19:47:17.685Z,96.50
2019-05-10T19:49:51.806Z,96.40
2019-05-10T19:52:21.200Z,96.60
2019-05-10T19:54:50.343Z,96.60
2019-05-10T19:57:19.947Z,96.80
2019-05-10T19:59:50.314Z,97.30
2019-05-10T20:02:20.026Z,97.20
2019-05-10T20:04:49.696Z,97.60
2019-05-10T20:07:19.441Z,97.60
2019-05-10T20:09:49.033Z,97.70
2019-05-10T20:12:18.606Z,97.60
2019-05-10T20:14:48.294Z,97.70
2019-05-10T20:17:18.298Z,98.00
2019-05-10T20:19:47.931Z,98.00
2019-05-10T20:22:17.513Z,97.80
2019-05-10T20:24:47.137Z,98.00
2019-05-10T20:27:16.829Z,97.90
2019-05-10T20:29:46.408Z,97.80
2019-05-10T20:32:15.998Z,98.00
2019-05-10T20:34:45.709Z,97.90
2019-05-10T20:37:15.325Z,98.50
2019-05-10T20:39:44.906Z,99.00
2019-05-10T20:42:14.487Z,98.60
2019-05-10T20:44:44.081Z,98.80
2019-05-10T20:47:13.633Z,98.70
2019-05-10T20:49:43.244Z,98.80
2019-05-10T20:52:12.863Z,98.50
2019-05-10T20:54:42.489Z,98.70
2019-05-10T20:57:12.040Z,98.60
2019-05-10T20:59:41.783Z,98.60
2019-05-10T21:02:11.343Z,98.20
2019-05-10T21:04:40.904Z,98.40
2019-05-10T21:07:10.520Z,98.30
2019-05-10T21:09:40.114Z,98.60
2019-05-10T21:12:09.631Z,98.40
2019-05-10T21:14:39.217Z,98.40
2019-05-10T21:17:09.757Z,98.50
2019-05-10T21:19:39.297Z,98.80
2019-05-10T21:22:08.828Z,98.60
2019-05-10T21:24:38.359Z,98.60
2019-05-10T21:27:07.887Z,98.20
2019-05-10T21:29:37.476Z,98.60
2019-05-10T21:32:07.065Z,98.50
2019-05-10T21:34:36.717Z,98.50
2019-05-10T21:37:06.244Z,98.50
2019-05-10T21:39:35.828Z,97.90
2019-05-10T21:42:05.508Z,98.00
2019-05-10T21:44:35.044Z,98.10
2019-05-10T21:47:04.631Z,98.20
2019-05-10T21:49:34.151Z,98.50
2019-05-10T21:52:03.826Z,98.50
2019-05-10T21:54:33.396Z,98.70
2019-05-10T21:57:03.017Z,99.00
2019-05-10T21:59:32.552Z,99.30
2019-05-10T22:02:02.147Z,99.30
2019-05-10T22:04:31.716Z,99.40
2019-05-10T22:07:01.285Z,99.30
2019-05-10T22:09:30.842Z,99.40
2019-05-10T22:12:00.421Z,99.40
2019-05-10T22:14:30.930Z,99.40
2019-05-10T22:17:00.483Z,99.50
2019-05-10T22:19:30.129Z,99.80
2019-05-10T22:21:59.701Z,99.90
2019-05-10T22:24:29.243Z,99.90
2019-05-10T22:26:58.776Z,99.90
2019-05-10T22:29:28.353Z,99.80
2019-05-10T22:31:57.872Z,99.90
2019-05-10T22:34:27.429Z,99.90
2019-05-10T22:36:56.960Z,99.90
2019-05-10T22:39:26.524Z,99.90
2019-05-10T22:41:56.073Z,99.60
2019-05-10T22:44:25.641Z,99.80
2019-05-10T22:46:55.235Z,99.70
2019-05-10T22:49:24.781Z,99.90
2019-05-10T22:51:55.344Z,99.90
2019-05-10T22:54:24.885Z,99.90
2019-05-10T22:56:54.399Z,99.90
2019-05-10T22:59:24.006Z,99.90
2019-05-10T23:01:53.549Z,99.90
2019-05-10T23:04:24.069Z,99.90
2019-05-10T23:06:53.709Z,99.90
2019-05-10T23:09:25.023Z,99.90
2019-05-10T23:11:54.583Z,99.90
2019-05-10T23:14:24.105Z,99.90
2019-05-10T23:16:53.645Z,99.90
2019-05-10T23:22:18.281Z,99.90
2019-05-10T23:24:48.797Z,99.90
2019-05-10T23:27:18.374Z,99.60
2019-05-10T23:29:48.005Z,99.10
2019-05-10T23:32:17.549Z,99.20
2019-05-10T23:34:47.071Z,99.50
2019-05-10T23:37:16.612Z,99.90
2019-05-10T23:39:46.266Z,99.90
2019-05-10T23:42:15.816Z,99.90
2019-05-10T23:44:45.356Z,99.90
2019-05-10T23:47:14.906Z,99.90
2019-05-10T23:49:44.483Z,99.90
2019-05-10T23:52:14.027Z,99.90
2019-05-10T23:54:43.580Z,99.90
2019-05-10T23:57:13.112Z,99.90
2019-05-10T23:59:42.668Z,99.90
